2 de julio de 2022

Hora Código Tiempo Temp. Visibilidad Cielo nuboso Viento METAR/SPECI
9:55 a. m.
V
82 °F 6¼ mi+ - 020° 020° 8 kt METAR LIPI 020755Z 02008KT CAVOK 28/16 Q1018
8:55 a. m.
V
81 °F 6¼ mi+ - 010° 010° 9 kt METAR LIPI 020655Z 01009KT CAVOK 27/16 Q1018 RMK SKC VIS MIN 9999 WIND THR06 04010KT WIND THR24 03008KT BLU
7:55 a. m.
V
77 °F 6¼ mi+ - 010° 010° 3 kt METAR LIPI 020555Z 01003KT CAVOK 25/15 Q1017 RMK SKC VIS MIN 9999 WIND THR06 04009KT WIND THR24 01006KT BLU
6:55 a. m.
V
73 °F 6¼ mi+ - 350° 350° 6 kt METAR LIPI 020455Z 35006KT CAVOK 23/15 Q1017 RMK SKC VIS MIN 9999 WIND THR06 03008KT WIND THR24 01007KT BLU
5:55 a. m.
V
70 °F 6¼ mi+ - 350° 350° 6 kt METAR LIPI 020355Z 35006KT CAVOK 21/15 Q1016 RMK SKC VIS MIN 9999 WIND THR06 03008KT WIND THR24 01007KT BLU
4:55 a. m.
V
68 °F 6¼ mi+ - 350° 350° 5 kt METAR LIPI 020255Z 35005KT CAVOK 20/16 Q1015 RMK SKC VIS MIN 9999 WIND THR06 03006KT WIND THR24 01006KT BLU
3:55 a. m.
V
68 °F 6¼ mi+ - 350° 350° 6 kt METAR LIPI 020155Z 35006KT CAVOK 20/16 Q1015
2:55 a. m.
V
68 °F 6¼ mi+ - 340° 340° 5 kt METAR LIPI 020055Z 34005KT CAVOK 20/16 Q1015 RMK SKC VIS MIN 9999 WIND THR06 02004KT WIND THR24 35004KT BLU
1:55 a. m.
V
70 °F 6¼ mi+ - 030° 030° 2 kt METAR LIPI 012355Z 03002KT CAVOK 21/18 Q1015
12:55 a. m.
V
72 °F 6¼ mi+ - 300° 300° 3 kt METAR LIPI 012255Z 30003KT CAVOK 22/18 Q1015 RMK SKC VIS MIN 9999 WIND THR06 35003KT WIND THR24 32004KT BLU

1 de julio de 2022

Hora Código Tiempo Temp. Visibilidad Cielo nuboso Viento METAR/SPECI
11:55 p. m.
V
72 °F 6¼ mi+ - 340° 340° 4 kt METAR LIPI 012155Z 34004KT CAVOK 22/19 Q1014 RMK SKC VIS MIN 9999 WIND THR06 02004KT WIND THR24 34004KT BLU
10:55 p. m.
V
73 °F 6¼ mi+ - 340° 340° 3 kt METAR LIPI 012055Z 34003KT CAVOK 23/20 Q1014
9:55 p. m.
V
75 °F 6¼ mi+ - 340° 340° 3 kt METAR LIPI 011955Z 34003KT CAVOK 24/22 Q1013 RMK SKC VIS MIN 9999 WIND THR06 02005KT WIND THR24 35003KT BLU
8:55 p. m.
V
81 °F 6¼ mi+ - 350° 350° 2 kt METAR LIPI 011855Z 35002KT 9999 FEW040 SCT110 27/22 Q1012 RMK SCT VIS MIN 9999 WIND THR06 05002KT WIND THR24 36002KT BLU
7:55 p. m.
V
82 °F 6¼ mi+ - 300° 300° 4 kt METAR LIPI 011755Z 30004KT 9999 SCT040 SCT100 28/20 Q1012 RMK BKN VIS MIN 9999 WIND THR06 34004KT WIND THR24 31004KT BLU
6:55 p. m.
V
82 °F 6¼ mi+ - 290° 290° 1 kt METAR LIPI 011655Z 29001KT 9999 SCT040 SCT110 28/18 Q1013 RMK BKN VIS MIN 9999 WIND THR06 18003KT WIND THR24 21002KT BLU
5:55 p. m.
V
84 °F 6¼ mi+ 11.000 ft 190° 190° 6 kt METAR LIPI 011555Z 19006KT 9999 SCT030 BKN110 29/19 Q1013 RMK BKN VIS MIN 9999 WIND THR06 21004KT WIND THR24 20007KT BLU
4:55 p. m.
V
86 °F 6¼ mi+ - 170° 170° 6 kt METAR LIPI 011455Z 17006KT 9999 SCT040 30/20 Q1012
3:55 p. m.
V
84 °F 6¼ mi+ - 150° 150° 4 kt METAR LIPI 011355Z 15004KT 9999 SCT040 29/22 Q1013 RMK BKN SCT200 VIS MIN 9999 WIND THR06 18005KT WIND THR24 15005KT BLU
2:55 p. m.
V
84 °F 6¼ mi+ - 140° 140° 7 kt METAR LIPI 011255Z 14007KT 9999 FEW050 29/22 Q1013 RMK BKN SCT200 VIS MIN 9999 WIND THR06 19007KT WIND THR24 16007KT BLU
1:55 p. m.
V
86 °F 6¼ mi+ - 180° 180° 9 kt METAR LIPI 011155Z 18009KT 9999 FEW050 30/23 Q1013
12:55 p. m.
V
86 °F 6¼ mi+ - 170° 170° 8 kt METAR LIPI 011055Z 17008KT CAVOK 30/18 Q1012 RMK BKN BKN200 VIS MIN 9999 WIND THR06 20008KT WIND THR24 17008KT BLU
11:55 a. m.
V
86 °F 6¼ mi+ - 130° 130° 6 kt METAR LIPI 010955Z 13006KT CAVOK 30/18 Q1012 RMK BKN BKN200 VIS MIN 9999 WIND THR06 16005KT WIND THR24 11006KT BLU
10:55 a. m.
V
84 °F 6¼ mi+ - 080° 080° 5 kt METAR LIPI 010855Z 08005KT CAVOK 29/18 Q1012 RMK SCT SCT200 VIS MIN 9999 WIND THR06 17004KT WIND THR24 12005KT BLU
9:55 a. m.
V
82 °F 6¼ mi+ - 080° 080° 6 kt METAR LIPI 010755Z 08006KT CAVOK 28/20 Q1012 RMK FEW FEW200 VIS MIN 9999 WIND THR06 13005KT WIND THR24 08006KT BLU
8:55 a. m.
V
81 °F 6¼ mi+ - 050° 050° 5 kt METAR LIPI 010655Z 05005KT CAVOK 27/21 Q1013 RMK FEW FEW200 VIS MIN 9999 WIND THR06 08005KT WIND THR24 07005KT BLU
7:55 a. m.
V
77 °F 6¼ mi+ - 010° 010° 4 kt METAR LIPI 010555Z 01004KT CAVOK 25/21 Q1013 RMK FEW FEW160 VIS MIN 9999 WIND THR06 06004KT WIND THR24 03004KT BLU
6:55 a. m.
V
72 °F 6¼ mi+ - 010° 010° 4 kt METAR LIPI 010455Z 01004KT 9999 FEW045 SCT060 22/20 Q1013 RMK SCT VIS MIN 9999 WIND THR06 04006KT WIND THR24 02004KT BLU
5:55 a. m.
V
70 °F 6¼ mi+ - 350° 350° 5 kt METAR LIPI 010355Z 35005KT 9999 FEW045 21/20 Q1013 RMK FEW VIS MIN 9999 WIND THR06 03004KT WIND THR24 02003KT BLU
4:55 a. m.
V
70 °F 6¼ mi+ - Var Var 1 kt METAR LIPI 010255Z VRB01KT 9999 FEW045 21/20 Q1013
3:55 a. m.
V
70 °F 6¼ mi+ - 360° 360° 3 kt METAR LIPI 010155Z 36003KT 9999 FEW045 21/20 Q1012
2:55 a. m.
V
72 °F 6¼ mi+ - 340° 340° 5 kt METAR LIPI 010055Z 34005KT 9999 FEW045 22/21 Q1013 RMK FEW VIS MIN 9999 WIND THR06 03004KT WIND THR24 36003KT BLU
1:55 a. m.
V
73 °F 6¼ mi+ - 030° 030° 4 kt METAR LIPI 302355Z 03004KT 9999 SCT045 23/21 Q1012 RMK SCT VIS MIN 9999 WIND THR06 06003KT WIND THR24 05004KT BLU
12:55 a. m.
V
73 °F 6¼ mi+ 4.500 ft 360° 360° 2 kt METAR LIPI 302255Z 36002KT 9999 BKN045 23/22 Q1012 RMK BKN VIS MIN 9999 WIND THR06 04002KT WIND THR24 04002KT BLU

30 de junio de 2022

Hora Código Tiempo Temp. Visibilidad Cielo nuboso Viento METAR/SPECI
11:55 p. m.
V
77 °F 6¼ mi+ - 060° 060° 3 kt METAR LIPI 302155Z 06003KT 9999 SCT045 25/23 Q1012
10:55 p. m.
V
77 °F 6¼ mi+ - Var Var 1 kt METAR LIPI 302055Z VRB01KT 9999 SCT045 25/23 Q1012 RMK SCT VIS MIN 9999 WIND THR06 VRB02KT WIND THR24 VRB01KT BLU
9:55 p. m.
V
77 °F 6¼ mi+ - 100° 100° 4 kt METAR LIPI 301955Z 10004KT 9999 SCT080 25/22 Q1011
8:55 p. m.
V
81 °F 6¼ mi+ - 100° 100° 4 kt METAR LIPI 301855Z 10004KT CAVOK 27/22 Q1011
7:55 p. m.
V
82 °F 6¼ mi+ - 110° 110° 6 kt METAR LIPI 301755Z 11006KT 9999 FEW040 28/23 Q1010 RMK SCT VIS MIN 9999 WIND THR06 14005KT WIND THR24 13007KT BLU
6:55 p. m.
V
84 °F 6¼ mi+ - 140° 140° 8 kt METAR LIPI 301655Z 14008KT 9999 FEW040 29/21 Q1010 RMK FEW VIS MIN 9999 WIND THR06 16006KT WIND THR24 16005KT BLU
5:55 p. m.
V
88 °F 6¼ mi+ - 110° 110° 6 kt METAR LIPI 301555Z 11006KT 9999 FEW040 31/22 Q1011
4:55 p. m.
V
88 °F 6¼ mi+ - 180° 180° 3 kt METAR LIPI 301455Z 18003KT 9999 FEW030 31/20 Q1011 RMK SCT VIS MIN 9999 WIND THR06 21003KT WIND THR24 21004KT BLU
3:55 p. m.
V
88 °F 6¼ mi+ - 120° 120° 3 kt METAR LIPI 301355Z 12003KT 9999 FEW030 31/20 Q1011 RMK SCT VIS MIN 9999 WIND THR06 23005KT WIND THR24 20004KT BLU
2:55 p. m.
V
86 °F 6¼ mi+ - 190° 190° 5 kt METAR LIPI 301255Z 19005KT 9999 FEW030 30/21 Q1011 RMK SCT VIS MIN 9999 WIND THR06 26002KT WIND THR24 22004KT BLU
1:55 p. m.
V
86 °F 6¼ mi+ - 200° 200° 6 kt METAR LIPI 301155Z 20006KT 9999 FEW030 30/21 Q1011 RMK FEW VIS MIN 9999 WIND THR06 20004KT WIND THR24 29003KT BLU
12:55 p. m.
V
84 °F 6¼ mi+ - 010° 010° 3 kt METAR LIPI 301055Z 01003KT 9999 FEW030 29/21 Q1011 RMK FEW VIS MIN 9999 WIND THR06 15004KT WIND THR24 05004KT BLU
11:55 a. m.
V
84 °F 6¼ mi+ - 100° 100° 3 kt METAR LIPI 300955Z 10003KT 9999 FEW030 29/21 Q1012
10:55 a. m.
V
82 °F 6¼ mi+ - 070° 070° 4 kt METAR LIPI 300855Z 07004KT 9999 FEW030 28/21 Q1012 RMK FEW VIS MIN 9999 WIND THR06 15004KT WIND THR24 14003KT BLU
9:55 a. m.
V
81 °F 6¼ mi+ - 070° 070° 4 kt METAR LIPI 300755Z 07004KT 9999 FEW040 27/22 Q1012
8:55 a. m.
V
79 °F 6¼ mi+ - 040° 040° 4 kt METAR LIPI 300655Z 04004KT CAVOK 26/21 Q1011
Datos más antiguos

Descarga nuestra aplicación

Acceso fácil a todo el tiempo de la aviación en tu teléfono móvil y tableta.
Con muchas funciones no disponibles en el sitio web, como la compatibilidad sin conexión y una lista personal de aeropuertos.

Nosotros y terceros seguimos tu comportamiento en Internet en nuestro sitio web con cookies. Si continúas, asumimos que estás de acuerdo con nuestra política de cookies. Más información